sensor_id;sensor_type;location;lat;lon;timestamp;P1;durP1;ratioP1;P2;durP2;ratioP2
37201;SDS011;37799;52.390;6.136;2023-03-12T00:01:46;13.93;;;3.88;;
37201;SDS011;37799;52.390;6.136;2023-03-12T00:04:11;13.93;;;4.90;;
37201;SDS011;37799;52.390;6.136;2023-03-12T00:06:37;12.07;;;3.80;;
37201;SDS011;37799;52.390;6.136;2023-03-12T00:09:02;8.85;;;2.53;;
37201;SDS011;37799;52.390;6.136;2023-03-12T00:11:28;8.43;;;1.33;;
37201;SDS011;37799;52.390;6.136;2023-03-12T00:13:55;4.53;;;1.05;;
37201;SDS011;37799;52.390;6.136;2023-03-12T00:16:22;3.13;;;0.93;;
37201;SDS011;37799;52.390;6.136;2023-03-12T00:18:48;2.97;;;0.80;;
37201;SDS011;37799;52.390;6.136;2023-03-12T00:21:15;5.75;;;1.15;;
37201;SDS011;37799;52.390;6.136;2023-03-12T00:23:41;5.47;;;1.20;;
37201;SDS011;37799;52.390;6.136;2023-03-12T00:26:10;5.35;;;1.00;;
37201;SDS011;37799;52.390;6.136;2023-03-12T00:28:37;5.47;;;1.13;;
37201;SDS011;37799;52.390;6.136;2023-03-12T00:31:11;5.10;;;0.90;;
37201;SDS011;37799;52.390;6.136;2023-03-12T00:33:41;4.47;;;1.08;;
37201;SDS011;37799;52.390;6.136;2023-03-12T00:36:08;4.10;;;0.90;;
37201;SDS011;37799;52.390;6.136;2023-03-12T00:38:33;4.00;;;0.93;;
37201;SDS011;37799;52.390;6.136;2023-03-12T00:40:59;9.23;;;1.20;;
37201;SDS011;37799;52.390;6.136;2023-03-12T00:43:24;6.25;;;1.13;;
37201;SDS011;37799;52.390;6.136;2023-03-12T00:45:49;7.97;;;1.13;;
37201;SDS011;37799;52.390;6.136;2023-03-12T00:48:15;5.80;;;1.08;;
37201;SDS011;37799;52.390;6.136;2023-03-12T00:50:40;4.03;;;0.88;;
37201;SDS011;37799;52.390;6.136;2023-03-12T00:53:05;4.45;;;1.10;;
37201;SDS011;37799;52.390;6.136;2023-03-12T00:55:31;4.70;;;1.20;;
37201;SDS011;37799;52.390;6.136;2023-03-12T00:57:56;4.53;;;1.00;;
37201;SDS011;37799;52.390;6.136;2023-03-12T01:00:21;7.00;;;1.20;;
37201;SDS011;37799;52.390;6.136;2023-03-12T01:02:47;3.17;;;0.80;;
37201;SDS011;37799;52.390;6.136;2023-03-12T01:05:12;3.85;;;0.93;;
37201;SDS011;37799;52.390;6.136;2023-03-12T01:07:39;4.38;;;1.50;;
37201;SDS011;37799;52.390;6.136;2023-03-12T01:10:04;5.35;;;1.42;;
37201;SDS011;37799;52.390;6.136;2023-03-12T01:12:32;3.55;;;0.98;;
37201;SDS011;37799;52.390;6.136;2023-03-12T01:14:57;5.72;;;1.65;;
37201;SDS011;37799;52.390;6.136;2023-03-12T01:17:22;3.42;;;1.13;;
37201;SDS011;37799;52.390;6.136;2023-03-12T01:19:48;4.90;;;0.90;;
37201;SDS011;37799;52.390;6.136;2023-03-12T01:22:13;4.53;;;1.40;;
37201;SDS011;37799;52.390;6.136;2023-03-12T01:24:38;4.07;;;1.00;;
37201;SDS011;37799;52.390;6.136;2023-03-12T01:27:03;3.78;;;1.17;;
37201;SDS011;37799;52.390;6.136;2023-03-12T01:29:29;3.95;;;0.80;;
37201;SDS011;37799;52.390;6.136;2023-03-12T01:31:54;5.57;;;0.80;;
37201;SDS011;37799;52.390;6.136;2023-03-12T01:34:20;9.82;;;1.27;;
37201;SDS011;37799;52.390;6.136;2023-03-12T01:36:45;5.45;;;1.05;;
37201;SDS011;37799;52.390;6.136;2023-03-12T01:39:11;3.75;;;0.95;;
37201;SDS011;37799;52.390;6.136;2023-03-12T01:41:38;3.40;;;0.73;;
37201;SDS011;37799;52.390;6.136;2023-03-12T01:44:04;2.83;;;0.68;;
37201;SDS011;37799;52.390;6.136;2023-03-12T01:46:33;4.22;;;0.75;;
37201;SDS011;37799;52.390;6.136;2023-03-12T01:49:35;3.40;;;0.80;;
37201;SDS011;37799;52.390;6.136;2023-03-12T01:54:36;2.58;;;0.65;;
37201;SDS011;37799;52.390;6.136;2023-03-12T01:57:05;4.22;;;1.02;;
37201;SDS011;37799;52.390;6.136;2023-03-12T01:59:44;3.90;;;0.80;;
37201;SDS011;37799;52.390;6.136;2023-03-12T02:02:13;2.97;;;0.43;;
37201;SDS011;37799;52.390;6.136;2023-03-12T02:04:42;3.85;;;1.00;;
37201;SDS011;37799;52.390;6.136;2023-03-12T02:07:10;3.35;;;0.93;;
37201;SDS011;37799;52.390;6.136;2023-03-12T02:09:39;4.25;;;0.80;;
37201;SDS011;37799;52.390;6.136;2023-03-12T02:12:07;4.07;;;0.77;;
37201;SDS011;37799;52.390;6.136;2023-03-12T02:14:33;3.67;;;0.93;;
37201;SDS011;37799;52.390;6.136;2023-03-12T02:16:59;3.60;;;0.70;;
37201;SDS011;37799;52.390;6.136;2023-03-12T02:19:28;2.45;;;0.60;;
37201;SDS011;37799;52.390;6.136;2023-03-12T02:22:02;3.17;;;0.65;;
37201;SDS011;37799;52.390;6.136;2023-03-12T02:24:38;4.00;;;0.77;;
37201;SDS011;37799;52.390;6.136;2023-03-12T02:27:12;2.75;;;0.70;;
37201;SDS011;37799;52.390;6.136;2023-03-12T02:29:40;2.78;;;0.73;;
37201;SDS011;37799;52.390;6.136;2023-03-12T02:32:07;2.90;;;0.60;;
37201;SDS011;37799;52.390;6.136;2023-03-12T02:34:39;3.22;;;0.60;;
37201;SDS011;37799;52.390;6.136;2023-03-12T02:37:04;3.17;;;0.75;;
37201;SDS011;37799;52.390;6.136;2023-03-12T02:39:30;3.47;;;0.90;;
37201;SDS011;37799;52.390;6.136;2023-03-12T02:41:56;3.90;;;0.80;;
37201;SDS011;37799;52.390;6.136;2023-03-12T02:44:24;3.03;;;0.82;;
37201;SDS011;37799;52.390;6.136;2023-03-12T02:46:53;6.53;;;0.80;;
37201;SDS011;37799;52.390;6.136;2023-03-12T02:49:21;4.63;;;1.00;;
37201;SDS011;37799;52.390;6.136;2023-03-12T02:51:48;5.07;;;0.70;;
37201;SDS011;37799;52.390;6.136;2023-03-12T02:54:14;3.40;;;1.08;;
37201;SDS011;37799;52.390;6.136;2023-03-12T02:56:41;6.63;;;0.88;;
37201;SDS011;37799;52.390;6.136;2023-03-12T02:59:07;3.63;;;0.90;;
37201;SDS011;37799;52.390;6.136;2023-03-12T03:01:33;3.33;;;0.70;;
37201;SDS011;37799;52.390;6.136;2023-03-12T03:04:00;4.88;;;0.93;;
37201;SDS011;37799;52.390;6.136;2023-03-12T03:06:27;4.22;;;1.00;;
37201;SDS011;37799;52.390;6.136;2023-03-12T03:08:52;3.17;;;0.90;;
37201;SDS011;37799;52.390;6.136;2023-03-12T03:11:18;5.18;;;0.80;;
37201;SDS011;37799;52.390;6.136;2023-03-12T03:13:48;4.15;;;0.80;;
37201;SDS011;37799;52.390;6.136;2023-03-12T03:16:13;3.97;;;0.95;;
37201;SDS011;37799;52.390;6.136;2023-03-12T03:18:38;3.08;;;0.63;;
37201;SDS011;37799;52.390;6.136;2023-03-12T03:21:05;4.13;;;0.93;;
37201;SDS011;37799;52.390;6.136;2023-03-12T03:23:32;4.80;;;1.02;;
37201;SDS011;37799;52.390;6.136;2023-03-12T03:25:57;4.28;;;0.88;;
37201;SDS011;37799;52.390;6.136;2023-03-12T03:28:27;2.67;;;0.68;;
37201;SDS011;37799;52.390;6.136;2023-03-12T03:30:54;2.50;;;0.68;;
37201;SDS011;37799;52.390;6.136;2023-03-12T03:33:26;3.22;;;0.90;;
37201;SDS011;37799;52.390;6.136;2023-03-12T03:35:53;5.20;;;0.93;;
37201;SDS011;37799;52.390;6.136;2023-03-12T03:38:19;5.07;;;0.65;;
37201;SDS011;37799;52.390;6.136;2023-03-12T03:40:45;1.90;;;0.73;;
37201;SDS011;37799;52.390;6.136;2023-03-12T03:43:10;8.38;;;1.05;;
37201;SDS011;37799;52.390;6.136;2023-03-12T03:45:36;3.70;;;0.90;;
37201;SDS011;37799;52.390;6.136;2023-03-12T03:48:01;3.78;;;1.05;;
37201;SDS011;37799;52.390;6.136;2023-03-12T03:50:26;4.07;;;0.98;;
37201;SDS011;37799;52.390;6.136;2023-03-12T03:52:52;2.80;;;0.70;;
37201;SDS011;37799;52.390;6.136;2023-03-12T03:55:17;1.75;;;0.43;;
37201;SDS011;37799;52.390;6.136;2023-03-12T03:57:42;3.65;;;1.05;;
37201;SDS011;37799;52.390;6.136;2023-03-12T04:00:08;5.32;;;0.80;;
37201;SDS011;37799;52.390;6.136;2023-03-12T04:02:37;3.15;;;0.75;;
37201;SDS011;37799;52.390;6.136;2023-03-12T04:05:03;3.50;;;0.68;;
37201;SDS011;37799;52.390;6.136;2023-03-12T04:07:29;5.22;;;0.68;;
37201;SDS011;37799;52.390;6.136;2023-03-12T04:09:54;2.33;;;0.60;;
37201;SDS011;37799;52.390;6.136;2023-03-12T04:12:21;4.30;;;0.73;;
37201;SDS011;37799;52.390;6.136;2023-03-12T04:14:49;4.00;;;1.10;;
37201;SDS011;37799;52.390;6.136;2023-03-12T04:17:15;6.65;;;1.00;;
37201;SDS011;37799;52.390;6.136;2023-03-12T04:19:40;3.78;;;0.82;;
37201;SDS011;37799;52.390;6.136;2023-03-12T04:22:06;2.38;;;0.65;;
37201;SDS011;37799;52.390;6.136;2023-03-12T04:24:31;2.65;;;0.90;;
37201;SDS011;37799;52.390;6.136;2023-03-12T04:26:56;2.42;;;0.80;;
37201;SDS011;37799;52.390;6.136;2023-03-12T04:29:23;3.50;;;0.80;;
37201;SDS011;37799;52.390;6.136;2023-03-12T04:31:48;3.50;;;0.60;;
37201;SDS011;37799;52.390;6.136;2023-03-12T04:34:13;5.28;;;0.75;;
37201;SDS011;37799;52.390;6.136;2023-03-12T04:36:38;3.10;;;0.65;;
37201;SDS011;37799;52.390;6.136;2023-03-12T04:39:04;3.40;;;0.55;;
37201;SDS011;37799;52.390;6.136;2023-03-12T04:41:31;3.83;;;0.90;;
37201;SDS011;37799;52.390;6.136;2023-03-12T04:43:57;2.53;;;0.65;;
37201;SDS011;37799;52.390;6.136;2023-03-12T04:46:22;3.00;;;0.70;;
37201;SDS011;37799;52.390;6.136;2023-03-12T04:48:48;2.83;;;0.82;;
37201;SDS011;37799;52.390;6.136;2023-03-12T04:51:13;3.72;;;0.80;;
37201;SDS011;37799;52.390;6.136;2023-03-12T04:53:39;2.38;;;0.63;;
37201;SDS011;37799;52.390;6.136;2023-03-12T04:56:04;4.75;;;1.02;;
37201;SDS011;37799;52.390;6.136;2023-03-12T04:58:30;4.63;;;0.90;;
37201;SDS011;37799;52.390;6.136;2023-03-12T05:00:55;5.18;;;0.57;;
37201;SDS011;37799;52.390;6.136;2023-03-12T05:03:20;2.70;;;0.40;;
37201;SDS011;37799;52.390;6.136;2023-03-12T05:05:46;6.13;;;1.08;;
37201;SDS011;37799;52.390;6.136;2023-03-12T05:08:11;2.03;;;0.40;;
37201;SDS011;37799;52.390;6.136;2023-03-12T05:10:36;4.88;;;0.82;;
37201;SDS011;37799;52.390;6.136;2023-03-12T05:13:02;4.15;;;0.93;;
37201;SDS011;37799;52.390;6.136;2023-03-12T05:15:27;2.25;;;0.38;;
37201;SDS011;37799;52.390;6.136;2023-03-12T05:17:52;4.57;;;0.90;;
37201;SDS011;37799;52.390;6.136;2023-03-12T05:20:18;3.33;;;1.00;;
37201;SDS011;37799;52.390;6.136;2023-03-12T05:22:43;3.67;;;0.98;;
37201;SDS011;37799;52.390;6.136;2023-03-12T05:25:09;1.85;;;0.35;;
37201;SDS011;37799;52.390;6.136;2023-03-12T05:27:35;5.15;;;0.75;;
37201;SDS011;37799;52.390;6.136;2023-03-12T05:30:00;4.72;;;0.88;;
37201;SDS011;37799;52.390;6.136;2023-03-12T05:32:26;6.90;;;0.65;;
37201;SDS011;37799;52.390;6.136;2023-03-12T05:34:52;4.00;;;0.82;;
37201;SDS011;37799;52.390;6.136;2023-03-12T05:37:17;2.42;;;0.55;;
37201;SDS011;37799;52.390;6.136;2023-03-12T05:39:42;3.45;;;0.75;;
37201;SDS011;37799;52.390;6.136;2023-03-12T05:42:11;4.43;;;0.80;;
37201;SDS011;37799;52.390;6.136;2023-03-12T05:44:37;5.70;;;0.80;;
37201;SDS011;37799;52.390;6.136;2023-03-12T05:47:03;1.95;;;0.45;;
37201;SDS011;37799;52.390;6.136;2023-03-12T05:49:29;2.58;;;0.70;;
37201;SDS011;37799;52.390;6.136;2023-03-12T05:51:54;3.17;;;0.50;;
37201;SDS011;37799;52.390;6.136;2023-03-12T05:54:20;4.72;;;0.65;;
37201;SDS011;37799;52.390;6.136;2023-03-12T05:56:45;3.00;;;0.60;;
37201;SDS011;37799;52.390;6.136;2023-03-12T05:59:10;3.13;;;0.82;;
37201;SDS011;37799;52.390;6.136;2023-03-12T06:01:36;4.05;;;0.80;;
37201;SDS011;37799;52.390;6.136;2023-03-12T06:04:01;3.22;;;0.50;;
37201;SDS011;37799;52.390;6.136;2023-03-12T06:06:28;3.88;;;0.57;;
37201;SDS011;37799;52.390;6.136;2023-03-12T06:08:55;2.25;;;0.45;;
37201;SDS011;37799;52.390;6.136;2023-03-12T06:11:20;1.85;;;0.45;;
37201;SDS011;37799;52.390;6.136;2023-03-12T06:13:45;4.47;;;0.73;;
37201;SDS011;37799;52.390;6.136;2023-03-12T06:16:15;3.03;;;0.70;;
37201;SDS011;37799;52.390;6.136;2023-03-12T06:18:41;1.25;;;0.25;;
37201;SDS011;37799;52.390;6.136;2023-03-12T06:21:08;2.30;;;0.70;;
37201;SDS011;37799;52.390;6.136;2023-03-12T06:23:39;5.82;;;1.08;;
37201;SDS011;37799;52.390;6.136;2023-03-12T06:26:05;2.45;;;0.52;;
37201;SDS011;37799;52.390;6.136;2023-03-12T06:28:31;3.25;;;0.40;;
37201;SDS011;37799;52.390;6.136;2023-03-12T06:30:57;4.88;;;0.60;;
37201;SDS011;37799;52.390;6.136;2023-03-12T06:33:22;4.13;;;0.77;;
37201;SDS011;37799;52.390;6.136;2023-03-12T06:35:48;1.67;;;0.47;;
37201;SDS011;37799;52.390;6.136;2023-03-12T06:38:13;3.03;;;0.57;;
37201;SDS011;37799;52.390;6.136;2023-03-12T06:40:38;2.85;;;0.50;;
37201;SDS011;37799;52.390;6.136;2023-03-12T06:43:03;2.75;;;0.55;;
37201;SDS011;37799;52.390;6.136;2023-03-12T06:45:29;2.97;;;0.52;;
37201;SDS011;37799;52.390;6.136;2023-03-12T06:47:54;1.55;;;0.32;;
37201;SDS011;37799;52.390;6.136;2023-03-12T06:50:20;1.42;;;0.50;;
37201;SDS011;37799;52.390;6.136;2023-03-12T06:52:45;3.00;;;0.40;;
37201;SDS011;37799;52.390;6.136;2023-03-12T06:55:10;6.30;;;0.60;;
37201;SDS011;37799;52.390;6.136;2023-03-12T06:57:36;2.13;;;0.35;;
37201;SDS011;37799;52.390;6.136;2023-03-12T07:00:01;2.00;;;0.43;;
37201;SDS011;37799;52.390;6.136;2023-03-12T07:02:28;1.83;;;0.30;;
37201;SDS011;37799;52.390;6.136;2023-03-12T07:04:53;2.05;;;0.52;;
37201;SDS011;37799;52.390;6.136;2023-03-12T07:07:18;2.35;;;0.40;;
37201;SDS011;37799;52.390;6.136;2023-03-12T07:09:44;2.70;;;0.40;;
37201;SDS011;37799;52.390;6.136;2023-03-12T07:12:09;3.17;;;0.57;;
37201;SDS011;37799;52.390;6.136;2023-03-12T07:14:34;1.02;;;0.22;;
37201;SDS011;37799;52.390;6.136;2023-03-12T07:17:00;1.85;;;0.40;;
37201;SDS011;37799;52.390;6.136;2023-03-12T07:19:26;2.25;;;0.40;;
37201;SDS011;37799;52.390;6.136;2023-03-12T07:21:54;4.95;;;0.93;;
37201;SDS011;37799;52.390;6.136;2023-03-12T07:24:19;2.92;;;0.60;;
37201;SDS011;37799;52.390;6.136;2023-03-12T07:26:45;2.97;;;0.75;;
37201;SDS011;37799;52.390;6.136;2023-03-12T07:29:10;3.42;;;0.50;;
37201;SDS011;37799;52.390;6.136;2023-03-12T07:31:35;2.25;;;0.57;;
37201;SDS011;37799;52.390;6.136;2023-03-12T07:34:01;3.17;;;0.57;;
37201;SDS011;37799;52.390;6.136;2023-03-12T07:36:27;5.43;;;0.65;;
37201;SDS011;37799;52.390;6.136;2023-03-12T07:38:53;5.72;;;0.80;;
37201;SDS011;37799;52.390;6.136;2023-03-12T07:41:19;2.90;;;1.00;;
37201;SDS011;37799;52.390;6.136;2023-03-12T07:43:44;2.10;;;0.30;;
37201;SDS011;37799;52.390;6.136;2023-03-12T07:46:09;2.17;;;0.50;;
37201;SDS011;37799;52.390;6.136;2023-03-12T07:48:35;3.17;;;0.57;;
37201;SDS011;37799;52.390;6.136;2023-03-12T07:51:00;3.47;;;0.50;;
37201;SDS011;37799;52.390;6.136;2023-03-12T07:53:25;2.42;;;0.55;;
37201;SDS011;37799;52.390;6.136;2023-03-12T07:55:51;3.33;;;0.70;;
37201;SDS011;37799;52.390;6.136;2023-03-12T07:58:16;3.20;;;0.70;;
37201;SDS011;37799;52.390;6.136;2023-03-12T08:00:42;2.35;;;0.60;;
37201;SDS011;37799;52.390;6.136;2023-03-12T08:03:07;3.13;;;0.70;;
37201;SDS011;37799;52.390;6.136;2023-03-12T08:05:32;2.58;;;0.30;;
37201;SDS011;37799;52.390;6.136;2023-03-12T08:07:58;5.78;;;1.10;;
37201;SDS011;37799;52.390;6.136;2023-03-12T08:10:23;3.90;;;0.75;;
37201;SDS011;37799;52.390;6.136;2023-03-12T08:12:48;5.20;;;0.90;;
37201;SDS011;37799;52.390;6.136;2023-03-12T08:15:14;3.53;;;0.80;;
37201;SDS011;37799;52.390;6.136;2023-03-12T08:17:39;2.47;;;0.70;;
37201;SDS011;37799;52.390;6.136;2023-03-12T08:20:05;3.25;;;0.80;;
37201;SDS011;37799;52.390;6.136;2023-03-12T08:22:34;4.07;;;0.75;;
37201;SDS011;37799;52.390;6.136;2023-03-12T08:25:00;5.70;;;1.00;;
37201;SDS011;37799;52.390;6.136;2023-03-12T08:27:25;2.70;;;0.80;;
37201;SDS011;37799;52.390;6.136;2023-03-12T08:29:51;4.00;;;1.02;;
37201;SDS011;37799;52.390;6.136;2023-03-12T08:32:16;4.22;;;1.85;;
37201;SDS011;37799;52.390;6.136;2023-03-12T08:34:42;3.85;;;0.63;;
37201;SDS011;37799;52.390;6.136;2023-03-12T08:37:07;3.67;;;0.88;;
37201;SDS011;37799;52.390;6.136;2023-03-12T08:39:32;4.05;;;0.93;;
37201;SDS011;37799;52.390;6.136;2023-03-12T08:41:58;6.18;;;1.30;;
37201;SDS011;37799;52.390;6.136;2023-03-12T08:44:23;8.45;;;1.52;;
37201;SDS011;37799;52.390;6.136;2023-03-12T08:46:50;5.78;;;0.88;;
37201;SDS011;37799;52.390;6.136;2023-03-12T08:49:16;6.97;;;1.27;;
37201;SDS011;37799;52.390;6.136;2023-03-12T08:51:41;4.35;;;1.20;;
37201;SDS011;37799;52.390;6.136;2023-03-12T08:54:07;3.92;;;1.30;;
37201;SDS011;37799;52.390;6.136;2023-03-12T08:56:33;7.00;;;1.15;;
37201;SDS011;37799;52.390;6.136;2023-03-12T08:59:01;7.47;;;1.35;;
37201;SDS011;37799;52.390;6.136;2023-03-12T09:01:26;3.97;;;1.30;;
37201;SDS011;37799;52.390;6.136;2023-03-12T09:03:51;5.80;;;1.50;;
37201;SDS011;37799;52.390;6.136;2023-03-12T09:06:19;5.88;;;1.20;;
37201;SDS011;37799;52.390;6.136;2023-03-12T09:08:45;6.47;;;1.40;;
37201;SDS011;37799;52.390;6.136;2023-03-12T09:11:12;4.40;;;1.20;;
37201;SDS011;37799;52.390;6.136;2023-03-12T09:13:39;4.00;;;1.30;;
37201;SDS011;37799;52.390;6.136;2023-03-12T09:16:05;5.90;;;1.60;;
37201;SDS011;37799;52.390;6.136;2023-03-12T09:18:32;6.30;;;1.58;;
37201;SDS011;37799;52.390;6.136;2023-03-12T09:20:58;7.85;;;1.77;;
37201;SDS011;37799;52.390;6.136;2023-03-12T09:23:23;4.78;;;1.77;;
37201;SDS011;37799;52.390;6.136;2023-03-12T09:25:49;5.20;;;1.13;;
37201;SDS011;37799;52.390;6.136;2023-03-12T09:28:15;4.70;;;1.13;;
37201;SDS011;37799;52.390;6.136;2023-03-12T09:30:41;6.75;;;1.67;;
37201;SDS011;37799;52.390;6.136;2023-03-12T09:33:06;5.32;;;1.55;;
37201;SDS011;37799;52.390;6.136;2023-03-12T09:35:32;7.15;;;1.85;;
37201;SDS011;37799;52.390;6.136;2023-03-12T09:37:58;4.40;;;1.77;;
37201;SDS011;37799;52.390;6.136;2023-03-12T09:40:24;6.72;;;2.05;;
37201;SDS011;37799;52.390;6.136;2023-03-12T09:43:01;5.53;;;1.75;;
37201;SDS011;37799;52.390;6.136;2023-03-12T09:45:30;7.10;;;1.75;;
37201;SDS011;37799;52.390;6.136;2023-03-12T09:48:02;6.60;;;1.60;;
37201;SDS011;37799;52.390;6.136;2023-03-12T09:53:03;3.95;;;0.75;;
37201;SDS011;37799;52.390;6.136;2023-03-12T09:55:51;4.75;;;1.65;;
37201;SDS011;37799;52.390;6.136;2023-03-12T09:58:32;4.30;;;1.17;;
37201;SDS011;37799;52.390;6.136;2023-03-12T10:01:01;7.15;;;2.03;;
37201;SDS011;37799;52.390;6.136;2023-03-12T10:03:34;4.82;;;1.58;;
37201;SDS011;37799;52.390;6.136;2023-03-12T10:06:24;6.15;;;1.58;;
37201;SDS011;37799;52.390;6.136;2023-03-12T10:11:58;8.75;;;2.30;;
37201;SDS011;37799;52.390;6.136;2023-03-12T10:28:04;5.65;;;1.98;;
37201;SDS011;37799;52.390;6.136;2023-03-12T10:30:38;7.40;;;1.98;;
37201;SDS011;37799;52.390;6.136;2023-03-12T10:33:09;7.07;;;1.70;;
37201;SDS011;37799;52.390;6.136;2023-03-12T10:38:04;7.68;;;1.90;;
37201;SDS011;37799;52.390;6.136;2023-03-12T10:40:37;7.20;;;1.65;;
37201;SDS011;37799;52.390;6.136;2023-03-12T10:43:04;7.30;;;1.80;;
37201;SDS011;37799;52.390;6.136;2023-03-12T10:48:27;8.48;;;2.20;;
37201;SDS011;37799;52.390;6.136;2023-03-12T10:51:06;7.15;;;2.20;;
37201;SDS011;37799;52.390;6.136;2023-03-12T10:53:33;8.93;;;2.45;;
37201;SDS011;37799;52.390;6.136;2023-03-12T10:58:35;7.45;;;2.92;;
37201;SDS011;37799;52.390;6.136;2023-03-12T11:01:07;8.10;;;2.75;;
37201;SDS011;37799;52.390;6.136;2023-03-12T11:03:39;9.52;;;2.70;;
37201;SDS011;37799;52.390;6.136;2023-03-12T11:06:05;7.65;;;2.40;;
37201;SDS011;37799;52.390;6.136;2023-03-12T11:08:33;8.13;;;2.10;;
37201;SDS011;37799;52.390;6.136;2023-03-12T11:11:00;9.05;;;3.03;;
37201;SDS011;37799;52.390;6.136;2023-03-12T11:13:35;8.88;;;2.83;;
37201;SDS011;37799;52.390;6.136;2023-03-12T11:16:24;8.57;;;2.75;;
37201;SDS011;37799;52.390;6.136;2023-03-12T11:19:00;7.65;;;2.13;;
37201;SDS011;37799;52.390;6.136;2023-03-12T11:21:28;7.45;;;2.28;;
37201;SDS011;37799;52.390;6.136;2023-03-12T11:26:21;9.13;;;3.00;;
37201;SDS011;37799;52.390;6.136;2023-03-12T11:29:00;11.45;;;3.03;;
37201;SDS011;37799;52.390;6.136;2023-03-12T11:31:30;9.10;;;2.22;;
37201;SDS011;37799;52.390;6.136;2023-03-12T11:34:03;11.13;;;3.83;;
37201;SDS011;37799;52.390;6.136;2023-03-12T11:36:44;7.80;;;2.15;;
37201;SDS011;37799;52.390;6.136;2023-03-12T11:51:00;10.65;;;3.50;;
37201;SDS011;37799;52.390;6.136;2023-03-12T12:15:50;15.38;;;3.55;;
37201;SDS011;37799;52.390;6.136;2023-03-12T12:18:33;13.18;;;3.45;;
37201;SDS011;37799;52.390;6.136;2023-03-12T12:21:40;12.50;;;3.92;;
37201;SDS011;37799;52.390;6.136;2023-03-12T12:24:28;14.00;;;3.80;;
37201;SDS011;37799;52.390;6.136;2023-03-12T12:27:39;10.48;;;3.17;;
37201;SDS011;37799;52.390;6.136;2023-03-12T12:30:14;12.82;;;3.60;;
37201;SDS011;37799;52.390;6.136;2023-03-12T12:35:47;11.23;;;3.97;;
37201;SDS011;37799;52.390;6.136;2023-03-12T12:38:19;10.68;;;3.60;;
37201;SDS011;37799;52.390;6.136;2023-03-12T12:41:10;12.32;;;3.13;;
37201;SDS011;37799;52.390;6.136;2023-03-12T12:43:45;11.65;;;2.83;;
37201;SDS011;37799;52.390;6.136;2023-03-12T12:46:14;11.52;;;4.18;;
37201;SDS011;37799;52.390;6.136;2023-03-12T12:48:47;11.30;;;3.38;;
37201;SDS011;37799;52.390;6.136;2023-03-12T12:51:18;13.25;;;3.75;;
37201;SDS011;37799;52.390;6.136;2023-03-12T12:53:59;16.15;;;4.07;;
37201;SDS011;37799;52.390;6.136;2023-03-12T12:56:32;9.77;;;3.55;;
37201;SDS011;37799;52.390;6.136;2023-03-12T13:02:01;11.93;;;2.90;;
37201;SDS011;37799;52.390;6.136;2023-03-12T13:04:35;12.65;;;3.15;;
37201;SDS011;37799;52.390;6.136;2023-03-12T13:07:28;12.23;;;2.95;;
37201;SDS011;37799;52.390;6.136;2023-03-12T13:09:49;10.70;;;2.55;;
37201;SDS011;37799;52.390;6.136;2023-03-12T13:14:45;10.07;;;3.00;;
37201;SDS011;37799;52.390;6.136;2023-03-12T13:19:45;10.23;;;2.65;;
37201;SDS011;37799;52.390;6.136;2023-03-12T13:22:14;3.85;;;1.00;;
37201;SDS011;37799;52.390;6.136;2023-03-12T13:24:56;20.77;;;2.92;;
37201;SDS011;37799;52.390;6.136;2023-03-12T13:27:43;10.82;;;2.67;;
37201;SDS011;37799;52.390;6.136;2023-03-12T13:41:27;10.02;;;1.70;;
37201;SDS011;37799;52.390;6.136;2023-03-12T13:48:45;14.90;;;2.43;;
37201;SDS011;37799;52.390;6.136;2023-03-12T13:53:40;6.80;;;1.23;;
37201;SDS011;37799;52.390;6.136;2023-03-12T13:56:13;5.82;;;1.65;;
37201;SDS011;37799;52.390;6.136;2023-03-12T13:58:47;9.13;;;1.58;;
37201;SDS011;37799;52.390;6.136;2023-03-12T14:01:18;8.77;;;1.42;;
37201;SDS011;37799;52.390;6.136;2023-03-12T14:03:49;8.27;;;1.58;;
37201;SDS011;37799;52.390;6.136;2023-03-12T14:06:23;10.73;;;1.33;;
37201;SDS011;37799;52.390;6.136;2023-03-12T14:17:11;2.70;;;0.82;;
37201;SDS011;37799;52.390;6.136;2023-03-12T14:19:41;6.55;;;1.65;;
37201;SDS011;37799;52.390;6.136;2023-03-12T14:22:11;5.45;;;1.65;;
37201;SDS011;37799;52.390;6.136;2023-03-12T14:24:41;9.57;;;1.75;;
37201;SDS011;37799;52.390;6.136;2023-03-12T14:27:16;3.83;;;1.02;;
37201;SDS011;37799;52.390;6.136;2023-03-12T14:32:35;7.18;;;1.30;;
37201;SDS011;37799;52.390;6.136;2023-03-12T14:35:07;9.50;;;1.58;;
37201;SDS011;37799;52.390;6.136;2023-03-12T14:38:15;8.77;;;1.95;;
37201;SDS011;37799;52.390;6.136;2023-03-12T14:40:40;6.45;;;0.73;;
37201;SDS011;37799;52.390;6.136;2023-03-12T14:43:23;4.80;;;0.95;;
37201;SDS011;37799;52.390;6.136;2023-03-12T14:45:53;5.47;;;1.08;;
37201;SDS011;37799;52.390;6.136;2023-03-12T14:48:26;9.07;;;1.60;;
37201;SDS011;37799;52.390;6.136;2023-03-12T14:50:57;7.20;;;1.33;;
37201;SDS011;37799;52.390;6.136;2023-03-12T14:55:57;8.85;;;2.38;;
37201;SDS011;37799;52.390;6.136;2023-03-12T14:58:54;4.43;;;1.48;;
37201;SDS011;37799;52.390;6.136;2023-03-12T15:01:21;5.50;;;1.50;;
37201;SDS011;37799;52.390;6.136;2023-03-12T15:03:52;7.93;;;1.90;;
37201;SDS011;37799;52.390;6.136;2023-03-12T15:06:34;8.43;;;0.80;;
37201;SDS011;37799;52.390;6.136;2023-03-12T15:09:05;6.20;;;1.30;;
37201;SDS011;37799;52.390;6.136;2023-03-12T15:11:32;10.05;;;1.40;;
37201;SDS011;37799;52.390;6.136;2023-03-12T15:14:01;14.73;;;2.08;;
37201;SDS011;37799;52.390;6.136;2023-03-12T15:16:29;9.80;;;1.45;;
37201;SDS011;37799;52.390;6.136;2023-03-12T15:18:55;10.77;;;1.42;;
37201;SDS011;37799;52.390;6.136;2023-03-12T15:21:21;6.57;;;0.95;;
37201;SDS011;37799;52.390;6.136;2023-03-12T15:23:47;4.80;;;1.17;;
37201;SDS011;37799;52.390;6.136;2023-03-12T15:31:23;3.85;;;0.50;;
37201;SDS011;37799;52.390;6.136;2023-03-12T15:33:58;3.28;;;0.70;;
37201;SDS011;37799;52.390;6.136;2023-03-12T15:36:26;8.00;;;0.95;;
37201;SDS011;37799;52.390;6.136;2023-03-12T15:39:12;6.63;;;0.82;;
37201;SDS011;37799;52.390;6.136;2023-03-12T15:41:53;7.00;;;0.47;;
37201;SDS011;37799;52.390;6.136;2023-03-12T15:44:28;5.28;;;0.80;;
37201;SDS011;37799;52.390;6.136;2023-03-12T15:47:12;6.00;;;0.82;;
37201;SDS011;37799;52.390;6.136;2023-03-12T15:49:41;9.63;;;1.02;;
37201;SDS011;37799;52.390;6.136;2023-03-12T15:54:59;7.65;;;1.55;;
37201;SDS011;37799;52.390;6.136;2023-03-12T15:57:27;2.03;;;0.30;;
37201;SDS011;37799;52.390;6.136;2023-03-12T16:02:38;2.03;;;0.55;;
37201;SDS011;37799;52.390;6.136;2023-03-12T16:05:25;4.72;;;0.45;;
37201;SDS011;37799;52.390;6.136;2023-03-12T16:07:53;8.65;;;0.98;;
37201;SDS011;37799;52.390;6.136;2023-03-12T16:10:20;4.20;;;0.68;;
37201;SDS011;37799;52.390;6.136;2023-03-12T16:12:48;3.58;;;0.40;;
37201;SDS011;37799;52.390;6.136;2023-03-12T16:15:15;0.70;;;0.20;;
37201;SDS011;37799;52.390;6.136;2023-03-12T16:17:45;0.70;;;0.25;;
37201;SDS011;37799;52.390;6.136;2023-03-12T16:20:11;2.72;;;0.20;;
37201;SDS011;37799;52.390;6.136;2023-03-12T16:22:39;6.55;;;0.95;;
37201;SDS011;37799;52.390;6.136;2023-03-12T16:25:05;4.68;;;0.38;;
37201;SDS011;37799;52.390;6.136;2023-03-12T16:27:31;7.93;;;0.98;;
37201;SDS011;37799;52.390;6.136;2023-03-12T16:32:28;5.97;;;1.13;;
37201;SDS011;37799;52.390;6.136;2023-03-12T16:34:53;2.38;;;0.55;;
37201;SDS011;37799;52.390;6.136;2023-03-12T16:37:19;10.10;;;1.00;;
37201;SDS011;37799;52.390;6.136;2023-03-12T16:39:44;1.90;;;0.32;;
37201;SDS011;37799;52.390;6.136;2023-03-12T16:42:16;6.35;;;0.60;;
37201;SDS011;37799;52.390;6.136;2023-03-12T16:44:42;10.20;;;1.15;;
37201;SDS011;37799;52.390;6.136;2023-03-12T16:47:10;3.20;;;0.75;;
37201;SDS011;37799;52.390;6.136;2023-03-12T16:49:37;10.05;;;1.00;;
37201;SDS011;37799;52.390;6.136;2023-03-12T16:52:13;6.78;;;0.73;;
37201;SDS011;37799;52.390;6.136;2023-03-12T16:54:41;6.15;;;0.80;;
37201;SDS011;37799;52.390;6.136;2023-03-12T16:57:07;12.65;;;2.42;;